North Kingstown, RI (02852)

4:03 PM EDT on April 29, 2017 (GMT -0400)
MWCE5063 | | Change Station

Elev 0 ft 41.20 °N, 71.40 °W | Updated 15 days ago

Mostly Cloudy
Mostly Cloudy
--
Feels Like --
N
2.0
Wind Variable Wind from North

Today
High -- | Low -- °F
--% Chance of Precip.
Yesterday
High -- | Low -- °F
Precip. -- in
Pressure 29.84 in
Visibility 10.0 miles
Clouds Few 5500 ft
Few 7000 ft
Scattered Clouds 22000 ft
Mostly Cloudy 25000 ft
Mostly Cloudy 30000 ft
Dew Point Not available.
Humidity Not available.
Rainfall 0.00 in
Snow Depth Not available.
5:45 AM 7:41 PM
Waxing Crescent, 16% visible
METAR KPVD 291951Z 28016G24KT 10SM FEW055 FEW070 SCT220 BKN250 BKN300 30/16 A2984 RMK AO2 SLP104 T03000156 $
Pressure 29.84 in
Visibility 10.0 miles
Clouds Few 5500 ft
Few 7000 ft
Scattered Clouds 22000 ft
Mostly Cloudy 25000 ft
Mostly Cloudy 30000 ft
Dew Point Not available.
Humidity Not available.
Rainfall 0.00 in
Snow Depth Not available.
5:45 AM 7:41 PM
Waxing Crescent, 16% visible
METAR KPVD 291951Z 28016G24KT 10SM FEW055 FEW070 SCT220 BKN250 BKN300 30/16 A2984 RMK AO2 SLP104 T03000156 $

Get Severe Weather Alerts

Thanks for signing up!

Be on the lookout for a verification email in your inbox.

You'll start receiving the daily forecast at 8 AM.

×

10-Day Weather Forecast

Almanac

Astronomy

Apr. 29, 2017 Rise Set
Actual Time
Civil Twilight
Nautical Twilight
Astronomical Twilight
Moon
Length of Visible Light
Length of Day
Tomorrow will be .
, % of the Moon is Illuminated

Today's Extremes

State Highs State Lows

Community

WunderPhotos

WunderBlog® & News

Nearby

Air Quality

  Air Quality AQ Index Pollutant
Not available.

Snow Depth

Station Depth Elevation

Earthquake Activity

City Distance Mag. Time & Date
Minimum magnitude displayed is 2.5.

Coastal Water Temperatures

Place Temperature

Stations

Nearby Weather Stations

Station Location Temp. Windchill Dew Point Humidity Wind Precip. Elev Updated Type
                   

Watches & Warnings

There are currently no watches in effect.